Time;durP1;ratioP1;P1;durP2;ratioP2;P2;SDS_P1;SDS_P2;PMS_P1;PMS_P2;Temp;Humidity;BMP_temperature;BMP_pressure;BME280_temperature;BME280_humidity;BME280_pressure;Samples;Min_cycle;Max_cycle;Signal;HPM_P1;HPM_P2
2024/03/02 00:01:54;;;;;;;0.63;0.50;;;16.00;58.50;;;;;;5092268;28;20185;-62
2024/03/02 00:04:26;;;;;;;0.77;0.77;;;16.00;58.10;;;;;;5091258;28;20166;-62
2024/03/02 00:06:54;;;;;;;1.92;0.77;;;16.00;58.00;;;;;;5092430;28;20188;-62
2024/03/02 00:09:20;;;;;;;0.80;0.80;;;16.00;58.00;;;;;;5090133;28;20638;-62
2024/03/02 00:11:45;;;;;;;0.77;0.68;;;15.90;57.90;;;;;;5091024;28;20740;-63
2024/03/02 00:14:11;;;;;;;0.93;0.82;;;15.90;57.90;;;;;;5091102;28;20166;-62
2024/03/02 00:16:36;;;;;;;0.63;0.63;;;15.90;58.00;;;;;;5090133;28;20306;-62
2024/03/02 00:19:03;;;;;;;1.17;0.80;;;15.90;57.90;;;;;;5092069;28;20223;-62
2024/03/02 00:21:29;;;;;;;1.33;0.98;;;15.90;58.00;;;;;;5091744;28;20180;-63
2024/03/02 00:23:55;;;;;;;0.60;0.60;;;15.90;58.00;;;;;;5091757;28;20176;-63
2024/03/02 00:26:20;;;;;;;0.90;0.85;;;15.90;58.00;;;;;;5091834;28;20170;-63
2024/03/02 00:28:46;;;;;;;0.60;0.60;;;15.90;57.90;;;;;;5092079;28;20268;-62
2024/03/02 00:31:12;;;;;;;0.85;0.85;;;15.90;57.70;;;;;;5091000;28;20260;-62
2024/03/02 00:33:42;;;;;;;0.70;0.70;;;15.90;57.90;;;;;;5091974;28;20655;-62
2024/03/02 00:36:08;;;;;;;1.52;0.70;;;15.90;57.80;;;;;;5091920;28;20185;-63
2024/03/02 00:38:34;;;;;;;0.80;0.80;;;15.90;58.00;;;;;;5091328;28;20174;-63
2024/03/02 00:41:00;;;;;;;2.20;0.73;;;15.90;57.90;;;;;;5091914;28;20621;-63
2024/03/02 00:44:04;;;;;;;0.82;0.82;;;15.80;57.90;;;;;;5090244;28;20182;-62
2024/03/02 00:46:33;;;;;;;0.63;0.63;;;15.90;57.80;;;;;;5087359;28;20191;-62
2024/03/02 00:49:19;;;;;;;0.70;0.60;;;15.90;57.90;;;;;;5091951;28;20227;-62
2024/03/02 00:51:45;;;;;;;1.63;0.90;;;15.90;58.00;;;;;;5089801;28;20205;-62
2024/03/02 00:54:13;;;;;;;0.82;0.70;;;15.80;57.80;;;;;;5090232;28;20177;-63
2024/03/02 00:56:39;;;;;;;0.80;0.60;;;15.80;57.90;;;;;;5090401;28;20243;-62
2024/03/02 00:59:05;;;;;;;0.60;0.60;;;15.80;58.00;;;;;;5089708;28;20186;-62
2024/03/02 01:01:31;;;;;;;0.70;0.63;;;15.80;58.10;;;;;;5091487;28;20181;-63
2024/03/02 01:03:56;;;;;;;0.80;0.70;;;15.80;57.80;;;;;;5091725;28;20170;-63
2024/03/02 01:06:22;;;;;;;0.55;0.55;;;15.80;57.80;;;;;;5090639;28;20220;-62
2024/03/02 01:08:50;;;;;;;0.95;0.77;;;15.80;57.70;;;;;;5091615;28;21462;-62
2024/03/02 01:11:16;;;;;;;0.82;0.68;;;15.80;57.80;;;;;;5091511;28;20182;-62
2024/03/02 01:13:42;;;;;;;1.17;0.80;;;15.80;58.40;;;;;;5091033;28;20632;-62
2024/03/02 01:16:07;;;;;;;0.60;0.60;;;15.80;57.70;;;;;;5091628;28;20170;-62
2024/03/02 01:18:33;;;;;;;1.02;0.90;;;15.80;57.70;;;;;;5091524;28;20178;-62
2024/03/02 01:21:02;;;;;;;0.70;0.70;;;15.80;57.70;;;;;;5090917;28;20256;-63
2024/03/02 01:23:27;;;;;;;0.60;0.60;;;15.80;57.80;;;;;;5091220;28;20185;-63
2024/03/02 01:25:53;;;;;;;0.80;0.80;;;15.80;57.90;;;;;;5095239;28;20186;-63
2024/03/02 01:28:19;;;;;;;1.42;0.80;;;15.80;57.90;;;;;;5094415;28;20174;-62
2024/03/02 01:30:44;;;;;;;0.90;0.80;;;15.80;57.80;;;;;;5095313;28;20173;-62
2024/03/02 01:33:13;;;;;;;0.93;0.82;;;15.80;57.70;;;;;;5094825;28;20554;-62
2024/03/02 01:35:38;;;;;;;0.90;0.88;;;15.80;57.90;;;;;;5094350;28;20177;-63
2024/03/02 01:38:06;;;;;;;1.08;1.00;;;15.70;57.90;;;;;;5094923;28;20545;-63
2024/03/02 01:40:32;;;;;;;0.95;0.85;;;15.80;58.10;;;;;;5094084;28;20215;-63
2024/03/02 01:42:58;;;;;;;0.93;0.80;;;15.70;57.80;;;;;;5094831;28;20536;-62
2024/03/02 01:45:24;;;;;;;0.70;0.70;;;15.70;57.80;;;;;;5094520;28;20240;-62
2024/03/02 01:47:50;;;;;;;1.75;0.80;;;15.70;57.90;;;;;;5094180;28;20189;-62
2024/03/02 01:50:16;;;;;;;1.13;0.82;;;15.70;57.80;;;;;;5094320;28;20644;-62
2024/03/02 01:52:42;;;;;;;1.13;0.80;;;15.80;58.00;;;;;;5094858;28;20308;-62
2024/03/02 01:55:10;;;;;;;0.77;0.77;;;15.70;57.90;;;;;;5094074;28;20177;-62
2024/03/02 01:57:36;;;;;;;0.90;0.90;;;15.70;57.90;;;;;;5094523;28;20286;-62
2024/03/02 02:00:01;;;;;;;0.70;0.70;;;15.70;57.80;;;;;;5094651;28;20174;-62
2024/03/02 02:02:27;;;;;;;0.88;0.70;;;15.70;58.00;;;;;;5092470;28;20661;-62
2024/03/02 02:04:52;;;;;;;1.05;0.70;;;15.70;57.90;;;;;;5093196;28;20629;-63
2024/03/02 02:07:18;;;;;;;0.60;0.60;;;15.70;58.00;;;;;;5092841;28;20170;-62
2024/03/02 02:09:43;;;;;;;0.70;0.70;;;15.70;58.00;;;;;;5093806;28;20196;-62
2024/03/02 02:12:12;;;;;;;1.05;0.95;;;15.70;58.00;;;;;;5094058;28;20315;-63
2024/03/02 02:14:39;;;;;;;0.63;0.60;;;15.70;58.00;;;;;;5094254;28;20253;-62
2024/03/02 02:17:05;;;;;;;0.90;0.77;;;15.70;57.90;;;;;;5093507;28;20268;-62
2024/03/02 02:19:30;;;;;;;0.70;0.70;;;15.80;58.10;;;;;;5093883;28;20257;-61
2024/03/02 02:21:56;;;;;;;0.75;0.75;;;15.70;58.00;;;;;;5094121;28;20178;-63
2024/03/02 02:24:21;;;;;;;0.70;0.70;;;15.70;58.00;;;;;;5093179;28;20172;-62
2024/03/02 02:26:47;;;;;;;1.65;0.70;;;15.70;57.90;;;;;;5094202;28;20700;-62
2024/03/02 02:29:12;;;;;;;1.15;0.52;;;15.70;58.00;;;;;;5093749;28;20173;-62
2024/03/02 02:31:41;;;;;;;0.80;0.75;;;15.70;57.90;;;;;;5093186;28;20210;-62
2024/03/02 02:34:06;;;;;;;1.30;0.60;;;15.70;58.00;;;;;;5093847;28;20173;-62
2024/03/02 02:36:33;;;;;;;0.52;0.52;;;15.70;58.00;;;;;;5092941;28;20166;-62
2024/03/02 02:38:58;;;;;;;0.80;0.80;;;15.70;58.00;;;;;;5093046;28;20213;-62
2024/03/02 02:41:24;;;;;;;2.15;0.80;;;15.70;58.00;;;;;;5092505;28;20186;-62
2024/03/02 02:43:50;;;;;;;0.85;0.85;;;15.70;58.00;;;;;;5092790;28;20640;-63
2024/03/02 02:46:15;;;;;;;1.45;0.82;;;15.70;58.10;;;;;;5093379;28;20181;-62
2024/03/02 02:48:41;;;;;;;0.57;0.57;;;15.70;58.00;;;;;;5093525;28;20223;-62
2024/03/02 02:51:06;;;;;;;0.60;0.60;;;15.70;58.80;;;;;;5093132;28;20223;-61
2024/03/02 02:53:32;;;;;;;0.75;0.75;;;15.70;58.20;;;;;;5093327;28;20341;-62
2024/03/02 02:55:57;;;;;;;0.75;0.75;;;15.70;58.10;;;;;;5093631;28;20636;-62
2024/03/02 02:58:23;;;;;;;0.80;0.77;;;15.70;58.20;;;;;;5092349;28;20629;-62
2024/03/02 03:00:48;;;;;;;0.70;0.70;;;15.60;58.10;;;;;;5093447;28;20172;-62
2024/03/02 03:03:14;;;;;;;0.47;0.47;;;15.70;58.20;;;;;;5093014;28;20196;-62
2024/03/02 03:05:39;;;;;;;0.70;0.70;;;15.60;58.20;;;;;;5092779;28;20198;-62
2024/03/02 03:08:05;;;;;;;1.55;0.70;;;15.60;58.20;;;;;;5093223;28;20624;-62
2024/03/02 03:10:31;;;;;;;0.65;0.65;;;15.60;58.10;;;;;;5093031;28;20178;-62
2024/03/02 03:12:56;;;;;;;0.80;0.70;;;15.60;58.10;;;;;;5092289;28;20684;-62
2024/03/02 03:15:22;;;;;;;0.73;0.73;;;15.60;58.20;;;;;;5092825;28;20262;-62
2024/03/02 03:17:47;;;;;;;0.77;0.77;;;15.60;58.30;;;;;;5093046;28;20173;-63
2024/03/02 03:20:14;;;;;;;0.75;0.75;;;15.60;58.20;;;;;;5092288;28;20165;-62
2024/03/02 03:22:40;;;;;;;0.60;0.60;;;15.60;58.20;;;;;;5092952;28;20235;-62
2024/03/02 03:25:07;;;;;;;0.70;0.70;;;15.60;58.20;;;;;;5093117;28;20178;-62
2024/03/02 03:27:33;;;;;;;0.70;0.57;;;15.60;58.20;;;;;;5092350;28;20184;-62
2024/03/02 03:29:59;;;;;;;0.60;0.60;;;15.60;58.20;;;;;;5092897;28;20174;-62
2024/03/02 03:32:24;;;;;;;0.60;0.57;;;15.60;58.20;;;;;;5092405;28;20669;-62
2024/03/02 03:34:50;;;;;;;0.50;0.50;;;15.60;58.20;;;;;;5092243;28;20173;-62
2024/03/02 03:37:15;;;;;;;0.80;0.77;;;15.60;58.20;;;;;;5092350;28;20222;-62
2024/03/02 03:39:41;;;;;;;0.55;0.55;;;15.60;58.40;;;;;;5092912;28;20197;-63
2024/03/02 03:42:06;;;;;;;1.00;0.70;;;15.60;58.30;;;;;;5091890;28;20671;-63
2024/03/02 03:44:32;;;;;;;0.70;0.70;;;15.60;58.20;;;;;;5092307;28;20170;-63
2024/03/02 03:46:58;;;;;;;0.63;0.63;;;15.50;58.30;;;;;;5092291;28;20182;-62
2024/03/02 03:49:23;;;;;;;0.70;0.70;;;15.60;58.40;;;;;;5091031;28;20170;-62
2024/03/02 03:51:49;;;;;;;0.90;0.70;;;15.50;58.30;;;;;;5092689;28;20288;-62
2024/03/02 03:54:15;;;;;;;0.60;0.60;;;15.50;58.30;;;;;;5091622;28;20628;-62
2024/03/02 03:56:40;;;;;;;0.50;0.50;;;15.60;58.30;;;;;;5092363;28;20174;-63
2024/03/02 03:59:05;;;;;;;0.52;0.52;;;15.50;58.20;;;;;;5092450;28;20211;-62
2024/03/02 04:01:31;;;;;;;0.50;0.50;;;15.50;58.20;;;;;;5091298;28;20176;-62
2024/03/02 04:03:57;;;;;;;0.63;0.60;;;15.50;58.20;;;;;;5092245;28;20174;-62
2024/03/02 04:06:23;;;;;;;1.15;0.60;;;15.50;58.30;;;;;;5092228;28;20227;-63
2024/03/02 04:08:48;;;;;;;0.40;0.40;;;15.50;58.40;;;;;;5091727;28;20565;-62
2024/03/02 04:11:14;;;;;;;0.40;0.40;;;15.50;58.30;;;;;;5091829;28;20188;-63
2024/03/02 04:13:39;;;;;;;1.27;0.60;;;15.50;58.10;;;;;;5092129;28;20182;-62
2024/03/02 04:16:05;;;;;;;0.60;0.60;;;15.50;58.20;;;;;;5091466;28;20172;-62
2024/03/02 04:18:32;;;;;;;0.90;0.70;;;15.50;58.30;;;;;;5092097;28;20184;-63
2024/03/02 04:20:59;;;;;;;0.60;0.60;;;15.50;58.40;;;;;;5092267;28;20202;-63
2024/03/02 04:23:25;;;;;;;0.70;0.70;;;15.50;58.40;;;;;;5091324;28;20173;-62
2024/03/02 04:25:50;;;;;;;0.40;0.40;;;15.50;58.40;;;;;;5092227;28;20169;-62
2024/03/02 04:28:16;;;;;;;0.65;0.52;;;15.50;58.30;;;;;;5091765;28;20363;-62
2024/03/02 04:30:47;;;;;;;0.50;0.50;;;15.50;58.30;;;;;;5091259;28;20173;-62
2024/03/02 04:33:13;;;;;;;0.57;0.57;;;15.50;58.30;;;;;;5091601;28;20232;-62
2024/03/02 04:35:38;;;;;;;0.50;0.50;;;15.50;58.30;;;;;;5092197;28;20174;-63
2024/03/02 04:38:04;;;;;;;0.70;0.70;;;15.40;58.40;;;;;;5091457;28;20178;-63
2024/03/02 04:40:29;;;;;;;0.50;0.50;;;15.50;58.40;;;;;;5091690;28;20180;-62
2024/03/02 04:42:55;;;;;;;0.50;0.50;;;15.50;58.40;;;;;;5091983;28;20178;-62
2024/03/02 04:45:20;;;;;;;0.60;0.60;;;15.50;58.40;;;;;;5090876;28;20194;-63
2024/03/02 04:47:46;;;;;;;0.50;0.50;;;15.50;58.40;;;;;;5092114;28;20200;-62
2024/03/02 04:50:11;;;;;;;0.60;0.60;;;15.50;58.30;;;;;;5091743;28;20535;-62
2024/03/02 04:52:37;;;;;;;0.43;0.43;;;15.50;58.40;;;;;;5091176;28;20209;-62
2024/03/02 04:55:09;;;;;;;1.15;0.68;;;15.40;58.40;;;;;;5091944;28;20209;-62
2024/03/02 04:57:35;;;;;;;0.70;0.60;;;15.40;58.40;;;;;;5091032;28;20230;-62
2024/03/02 05:00:01;;;;;;;0.50;0.40;;;15.40;58.30;;;;;;5093957;28;20173;-63
2024/03/02 05:02:26;;;;;;;0.52;0.50;;;15.40;58.40;;;;;;5095567;28;20651;-63
2024/03/02 05:04:52;;;;;;;0.57;0.50;;;15.40;58.50;;;;;;5095054;28;20166;-62
2024/03/02 05:07:17;;;;;;;0.50;0.50;;;15.40;58.50;;;;;;5095414;28;20600;-62
2024/03/02 05:09:43;;;;;;;0.40;0.40;;;15.40;58.40;;;;;;5095440;28;20704;-62
2024/03/02 05:12:29;;;;;;;0.40;0.40;;;15.40;58.50;;;;;;5094420;28;20292;-62
2024/03/02 05:14:55;;;;;;;0.40;0.40;;;15.40;58.60;;;;;;5095764;28;20384;-62
2024/03/02 05:17:21;;;;;;;0.40;0.40;;;15.40;58.60;;;;;;5095266;28;20178;-62
2024/03/02 05:19:46;;;;;;;1.10;0.60;;;15.40;58.40;;;;;;5094744;28;20965;-63
2024/03/02 05:22:12;;;;;;;0.47;0.45;;;15.40;58.60;;;;;;5095086;28;20625;-63
2024/03/02 05:24:37;;;;;;;0.40;0.40;;;15.40;58.60;;;;;;5095298;28;20185;-62
2024/03/02 05:27:03;;;;;;;0.57;0.50;;;15.40;58.70;;;;;;5094466;28;20173;-62
2024/03/02 05:29:28;;;;;;;0.40;0.40;;;15.40;58.60;;;;;;5094817;28;20182;-62
2024/03/02 05:31:54;;;;;;;0.38;0.38;;;15.40;58.70;;;;;;5095069;28;20214;-62
2024/03/02 05:34:19;;;;;;;0.47;0.47;;;15.40;58.70;;;;;;5094069;28;20261;-62
2024/03/02 05:36:45;;;;;;;0.40;0.40;;;15.30;58.60;;;;;;5095108;28;20262;-62
2024/03/02 05:39:11;;;;;;;0.43;0.40;;;15.30;58.70;;;;;;5094749;28;20686;-63
2024/03/02 05:41:37;;;;;;;0.50;0.47;;;15.40;58.70;;;;;;5094227;28;20170;-63
2024/03/02 05:44:03;;;;;;;0.75;0.60;;;15.40;58.70;;;;;;5095105;28;20223;-62
2024/03/02 05:46:29;;;;;;;0.50;0.50;;;15.30;58.70;;;;;;5094748;28;20177;-62
2024/03/02 05:48:54;;;;;;;0.50;0.50;;;15.30;58.70;;;;;;5094062;28;20972;-62
2024/03/02 05:51:20;;;;;;;1.08;0.70;;;15.30;58.80;;;;;;5094432;28;20177;-62
2024/03/02 05:53:46;;;;;;;0.50;0.50;;;15.40;58.80;;;;;;5093933;28;20185;-62
2024/03/02 05:56:12;;;;;;;0.47;0.47;;;15.30;58.80;;;;;;5094252;28;20181;-62
2024/03/02 06:01:28;;;;;;;0.43;0.40;;;15.40;58.80;;;;;;5093653;28;20227;-62
2024/03/02 06:03:54;;;;;;;0.30;0.30;;;15.40;58.80;;;;;;5094630;28;20174;-62
2024/03/02 06:06:20;;;;;;;0.43;0.43;;;15.40;58.80;;;;;;5094274;28;20556;-62
2024/03/02 06:08:46;;;;;;;0.52;0.50;;;15.40;58.80;;;;;;5093757;28;20178;-62
2024/03/02 06:11:11;;;;;;;0.40;0.40;;;15.40;58.80;;;;;;5093446;28;20235;-62
2024/03/02 06:13:37;;;;;;;0.77;0.50;;;15.40;58.80;;;;;;5094282;28;20616;-62
2024/03/02 06:16:03;;;;;;;0.45;0.45;;;15.40;58.90;;;;;;5093673;28;20162;-62
2024/03/02 06:18:28;;;;;;;0.50;0.50;;;15.40;58.90;;;;;;5094080;28;20190;-63
2024/03/02 06:20:54;;;;;;;0.38;0.38;;;15.40;58.90;;;;;;5094281;28;20383;-62
2024/03/02 06:23:19;;;;;;;0.45;0.45;;;15.40;58.90;;;;;;5093090;28;20547;-63
2024/03/02 06:25:45;;;;;;;0.45;0.40;;;15.40;58.90;;;;;;5094565;28;20547;-62
2024/03/02 06:28:15;;;;;;;0.50;0.50;;;15.40;58.90;;;;;;5093816;28;20632;-62
2024/03/02 06:30:42;;;;;;;0.73;0.50;;;15.40;58.90;;;;;;5093433;28;20177;-62
2024/03/02 06:33:07;;;;;;;0.28;0.28;;;15.40;58.90;;;;;;5093837;28;20214;-62
2024/03/02 06:35:33;;;;;;;0.30;0.30;;;15.40;58.80;;;;;;5093877;28;20177;-63
2024/03/02 06:38:04;;;;;;;0.32;0.32;;;15.40;58.90;;;;;;5093077;28;20181;-62
2024/03/02 06:40:29;;;;;;;0.47;0.47;;;15.40;58.80;;;;;;5093543;28;20201;-62
2024/03/02 06:42:55;;;;;;;0.45;0.45;;;15.40;58.80;;;;;;5093194;28;20551;-62
2024/03/02 06:45:20;;;;;;;0.57;0.40;;;15.40;58.90;;;;;;5093499;28;20161;-62
2024/03/02 06:47:46;;;;;;;0.47;0.47;;;15.40;58.90;;;;;;5093737;28;20181;-62
2024/03/02 06:50:11;;;;;;;0.45;0.40;;;15.40;58.90;;;;;;5092545;28;20629;-62
2024/03/02 06:52:37;;;;;;;0.40;0.40;;;15.40;59.50;;;;;;5093476;28;20233;-62
2024/03/02 06:55:04;;;;;;;0.40;0.40;;;15.40;58.70;;;;;;5093483;28;20170;-63
2024/03/02 06:57:29;;;;;;;0.30;0.30;;;15.50;58.70;;;;;;5092535;28;20260;-62
2024/03/02 06:59:58;;;;;;;0.40;0.40;;;15.60;58.60;;;;;;5093460;28;20664;-63
2024/03/02 07:02:26;;;;;;;0.40;0.40;;;15.70;58.60;;;;;;5093075;28;20671;-63
2024/03/02 07:04:53;;;;;;;0.30;0.30;;;15.80;58.60;;;;;;5092642;28;20170;-62
2024/03/02 07:07:18;;;;;;;0.43;0.43;;;16.00;58.40;;;;;;5092972;28;20182;-62
2024/03/02 07:09:44;;;;;;;0.40;0.40;;;16.10;58.30;;;;;;5093210;28;20188;-63
2024/03/02 07:12:09;;;;;;;0.60;0.47;;;16.20;58.00;;;;;;5092210;28;20288;-63
2024/03/02 07:14:56;;;;;;;0.40;0.40;;;16.40;57.80;;;;;;5093006;28;20268;-63
2024/03/02 07:17:22;;;;;;;0.35;0.35;;;16.60;57.60;;;;;;5092735;28;20189;-62
2024/03/02 07:19:48;;;;;;;0.50;0.50;;;16.70;57.30;;;;;;5092211;28;20522;-63
2024/03/02 07:22:13;;;;;;;0.30;0.30;;;16.90;57.00;;;;;;5092558;28;20178;-62
2024/03/02 07:24:42;;;;;;;0.75;0.40;;;17.00;56.90;;;;;;5092914;28;20174;-63
2024/03/02 07:27:09;;;;;;;0.47;0.47;;;17.00;56.70;;;;;;5091968;28;20215;-62
2024/03/02 07:29:34;;;;;;;0.30;0.30;;;17.10;56.70;;;;;;5092931;28;20169;-62
2024/03/02 07:32:00;;;;;;;0.50;0.50;;;17.10;56.50;;;;;;5092732;28;20228;-62
2024/03/02 07:34:25;;;;;;;0.40;0.40;;;17.20;56.50;;;;;;5092099;28;20531;-63
2024/03/02 07:36:51;;;;;;;0.30;0.30;;;17.30;56.30;;;;;;5092806;28;20166;-63
2024/03/02 07:39:16;;;;;;;0.40;0.40;;;17.40;56.10;;;;;;5091782;28;20166;-63
2024/03/02 07:41:42;;;;;;;0.55;0.32;;;17.50;56.10;;;;;;5092722;28;20238;-64
2024/03/02 07:44:07;;;;;;;0.22;0.22;;;17.50;56.50;;;;;;5091329;28;20185;-63
2024/03/02 07:46:33;;;;;;;0.50;0.50;;;17.50;55.90;;;;;;5091772;28;20228;-62
2024/03/02 07:48:58;;;;;;;0.35;0.35;;;17.50;56.00;;;;;;5092748;28;20174;-60
2024/03/02 07:51:24;;;;;;;0.43;0.40;;;17.50;55.90;;;;;;5092003;28;20185;-62
2024/03/02 07:53:49;;;;;;;0.30;0.30;;;17.50;55.90;;;;;;5091920;28;20192;-63
2024/03/02 07:56:21;;;;;;;0.57;0.40;;;17.50;55.90;;;;;;5092009;28;20624;-63
2024/03/02 07:58:48;;;;;;;0.32;0.32;;;17.50;55.90;;;;;;5091090;28;20631;-63
2024/03/02 08:01:14;;;;;;;0.30;0.30;;;17.60;56.00;;;;;;5090261;28;20215;-63
2024/03/02 08:03:40;;;;;;;0.25;0.25;;;17.60;56.00;;;;;;5092488;28;20181;-63
2024/03/02 08:06:06;;;;;;;0.40;0.40;;;17.60;55.90;;;;;;5091292;28;20169;-63
2024/03/02 08:08:31;;;;;;;0.40;0.32;;;17.60;56.00;;;;;;5091333;28;20178;-63
2024/03/02 08:10:57;;;;;;;0.63;0.43;;;17.60;56.00;;;;;;5092225;28;20176;-61
2024/03/02 08:13:22;;;;;;;0.55;0.40;;;17.70;56.00;;;;;;5091944;28;20248;-62
2024/03/02 08:15:48;;;;;;;0.30;0.30;;;17.70;55.90;;;;;;5091469;28;20166;-62
2024/03/02 08:18:13;;;;;;;0.50;0.50;;;17.80;55.90;;;;;;5091949;28;20580;-62
2024/03/02 08:20:39;;;;;;;0.30;0.30;;;17.80;55.90;;;;;;5092358;28;20656;-62
2024/03/02 08:23:05;;;;;;;0.30;0.30;;;17.70;55.90;;;;;;5090322;28;20212;-62
2024/03/02 08:25:31;;;;;;;1.00;0.30;;;17.80;55.90;;;;;;5090648;28;20196;-61
2024/03/02 08:27:59;;;;;;;0.52;0.32;;;17.80;56.00;;;;;;5090896;28;20253;-62
2024/03/02 08:30:25;;;;;;;0.30;0.30;;;17.80;56.00;;;;;;5091008;28;20544;-61
2024/03/02 08:32:50;;;;;;;0.30;0.30;;;17.90;56.00;;;;;;5092142;28;20687;-61
2024/03/02 08:35:16;;;;;;;1.55;0.30;;;17.90;55.90;;;;;;5094489;28;20621;-62
2024/03/02 08:37:43;;;;;;;0.40;0.40;;;17.90;56.00;;;;;;5095602;28;20189;-62
2024/03/02 08:40:09;;;;;;;0.52;0.30;;;17.80;56.10;;;;;;5095785;28;20260;-62
2024/03/02 08:42:34;;;;;;;0.20;0.20;;;17.80;56.20;;;;;;5095460;28;20277;-62
2024/03/02 08:45:00;;;;;;;0.45;0.45;;;17.70;56.30;;;;;;5094777;28;20251;-61
2024/03/02 08:47:27;;;;;;;0.40;0.35;;;17.70;56.50;;;;;;5095867;28;20181;-61
2024/03/02 08:49:52;;;;;;;0.40;0.40;;;17.50;56.60;;;;;;5094212;28;20223;-61
2024/03/02 08:52:18;;;;;;;0.82;0.47;;;17.50;56.80;;;;;;5095646;28;20675;-62
2024/03/02 08:54:44;;;;;;;0.20;0.20;;;17.50;56.80;;;;;;5095880;28;20535;-62
2024/03/02 08:57:09;;;;;;;0.38;0.30;;;17.50;57.00;;;;;;5094702;28;20308;-62
2024/03/02 08:59:35;;;;;;;0.52;0.52;;;17.50;57.00;;;;;;5094472;28;20346;-62
2024/03/02 09:02:00;;;;;;;0.35;0.35;;;17.40;57.00;;;;;;5095735;28;20177;-62
2024/03/02 09:04:26;;;;;;;0.40;0.30;;;17.40;57.10;;;;;;5094691;28;20185;-61
2024/03/02 09:06:51;;;;;;;0.60;0.30;;;17.40;57.20;;;;;;5095767;28;20184;-62
2024/03/02 09:09:17;;;;;;;0.38;0.38;;;17.40;57.20;;;;;;5095326;28;20177;-62
2024/03/02 09:11:42;;;;;;;0.20;0.20;;;17.40;57.20;;;;;;5094780;28;20176;-62
2024/03/02 09:14:08;;;;;;;0.50;0.50;;;17.40;57.20;;;;;;5095208;28;20185;-61
2024/03/02 09:16:33;;;;;;;0.50;0.40;;;17.40;57.30;;;;;;5095707;28;20501;-61
2024/03/02 09:18:59;;;;;;;0.50;0.50;;;17.40;57.30;;;;;;5094830;28;20173;-62
2024/03/02 09:21:25;;;;;;;0.38;0.38;;;17.40;57.30;;;;;;5095212;28;20231;-62
2024/03/02 09:23:51;;;;;;;0.20;0.20;;;17.40;57.30;;;;;;5095578;28;20170;-62
2024/03/02 09:26:16;;;;;;;0.77;0.32;;;17.40;57.30;;;;;;5094275;28;20174;-62
2024/03/02 09:28:45;;;;;;;0.30;0.30;;;17.30;57.30;;;;;;5095384;28;20173;-62
2024/03/02 09:31:11;;;;;;;0.75;0.55;;;17.40;57.40;;;;;;5094972;28;20659;-62
2024/03/02 09:33:38;;;;;;;0.45;0.45;;;17.30;57.50;;;;;;5094345;28;20699;-62
2024/03/02 09:36:04;;;;;;;0.73;0.40;;;17.40;57.50;;;;;;5095338;28;20234;-62
2024/03/02 09:38:33;;;;;;;0.28;0.28;;;17.30;57.50;;;;;;5094848;28;20269;-63
2024/03/02 09:40:59;;;;;;;0.38;0.30;;;17.40;57.50;;;;;;5094427;28;20185;-62
2024/03/02 09:43:24;;;;;;;0.30;0.30;;;17.40;57.40;;;;;;5093501;28;20271;-62
2024/03/02 09:45:50;;;;;;;1.55;0.30;;;17.40;57.40;;;;;;5092998;28;20643;-62
2024/03/02 09:48:18;;;;;;;0.43;0.38;;;17.30;57.30;;;;;;5094530;28;20536;-61
2024/03/02 09:50:44;;;;;;;0.32;0.30;;;17.40;57.40;;;;;;5094986;28;20261;-62
2024/03/02 09:53:09;;;;;;;0.68;0.40;;;17.40;57.30;;;;;;5093604;28;20297;-62
2024/03/02 09:55:35;;;;;;;0.57;0.40;;;17.40;57.30;;;;;;5093488;28;20184;-62
2024/03/02 09:58:00;;;;;;;0.38;0.30;;;17.40;57.30;;;;;;5094587;28;20271;-62
2024/03/02 10:00:26;;;;;;;0.30;0.25;;;17.40;57.30;;;;;;5093844;28;20173;-62
2024/03/02 10:02:51;;;;;;;0.40;0.30;;;17.40;57.30;;;;;;5094732;28;20170;-62
2024/03/02 10:05:28;;;;;;;0.30;0.30;;;17.40;57.40;;;;;;5094393;28;20186;-62
2024/03/02 10:08:03;;;;;;;0.98;0.20;;;17.40;57.30;;;;;;5093840;28;20551;-62
2024/03/02 10:10:42;;;;;;;0.32;0.32;;;17.40;57.40;;;;;;5094155;28;20208;-62
2024/03/02 10:13:11;;;;;;;0.77;0.50;;;17.40;57.40;;;;;;5094361;28;20224;-62
2024/03/02 10:15:37;;;;;;;0.25;0.25;;;17.40;57.40;;;;;;5093797;28;20170;-62
2024/03/02 10:18:11;;;;;;;0.60;0.40;;;17.40;57.40;;;;;;5094494;28;20193;-62
2024/03/02 10:20:37;;;;;;;0.75;0.40;;;17.50;57.40;;;;;;5093088;28;20218;-62
2024/03/02 10:23:16;;;;;;;0.85;0.40;;;17.40;57.40;;;;;;5093706;28;20174;-62
2024/03/02 10:25:41;;;;;;;0.30;0.30;;;17.50;57.50;;;;;;5094281;28;20173;-61
2024/03/02 10:28:07;;;;;;;0.88;0.47;;;17.50;57.50;;;;;;5093301;28;20174;-62
2024/03/02 10:30:33;;;;;;;0.50;0.40;;;17.50;57.40;;;;;;5094084;28;20165;-62
2024/03/02 10:32:59;;;;;;;0.40;0.40;;;17.50;57.40;;;;;;5093952;28;20217;-61
2024/03/02 10:35:25;;;;;;;0.30;0.30;;;17.50;57.40;;;;;;5091529;28;20249;-62
2024/03/02 10:37:52;;;;;;;0.32;0.30;;;17.50;57.40;;;;;;5092727;28;20260;-62
2024/03/02 10:40:17;;;;;;;1.10;0.40;;;17.50;57.30;;;;;;5092527;28;20185;-62
2024/03/02 10:42:43;;;;;;;0.20;0.20;;;17.50;57.30;;;;;;5093238;28;20166;-62
2024/03/02 10:45:11;;;;;;;0.68;0.40;;;17.60;57.30;;;;;;5092295;28;20583;-62
2024/03/02 10:47:37;;;;;;;1.58;0.30;;;17.60;57.30;;;;;;5093563;28;20178;-62
2024/03/02 10:50:08;;;;;;;1.45;0.50;;;17.70;57.40;;;;;;5092844;28;20189;-62
2024/03/02 10:52:34;;;;;;;0.63;0.30;;;17.60;57.30;;;;;;5093707;28;20292;-62
2024/03/02 10:55:00;;;;;;;0.70;0.60;;;17.70;57.40;;;;;;5093574;28;20320;-62
2024/03/02 10:57:25;;;;;;;0.30;0.28;;;17.70;57.40;;;;;;5091848;28;20260;-62
2024/03/02 10:59:56;;;;;;;0.68;0.40;;;17.70;57.40;;;;;;5093569;28;20299;-62
2024/03/02 11:02:22;;;;;;;0.20;0.20;;;17.70;57.40;;;;;;5093045;28;20252;-62
2024/03/02 11:04:48;;;;;;;0.80;0.30;;;17.70;57.40;;;;;;5091836;28;20253;-62
2024/03/02 11:07:13;;;;;;;0.30;0.30;;;17.70;57.40;;;;;;5092124;28;20178;-62
2024/03/02 11:09:41;;;;;;;0.45;0.30;;;17.80;57.50;;;;;;5093217;28;20235;-62
2024/03/02 11:12:13;;;;;;;0.57;0.30;;;17.70;57.40;;;;;;5091279;28;20224;-62
2024/03/02 11:14:44;;;;;;;0.30;0.20;;;17.70;57.30;;;;;;5093233;28;20228;-62
2024/03/02 11:17:10;;;;;;;0.40;0.40;;;17.80;57.30;;;;;;5092579;28;20174;-62
2024/03/02 11:19:37;;;;;;;0.35;0.30;;;17.80;57.30;;;;;;5091663;28;20218;-62
2024/03/02 11:22:02;;;;;;;0.57;0.30;;;17.80;58.00;;;;;;5091945;28;20173;-62
2024/03/02 11:24:32;;;;;;;0.95;0.38;;;17.80;57.30;;;;;;5090991;28;20290;-61
2024/03/02 11:26:58;;;;;;;0.30;0.30;;;17.80;57.40;;;;;;5093002;28;20178;-62
2024/03/02 11:29:36;;;;;;;0.57;0.38;;;17.80;57.40;;;;;;5092508;28;20174;-62
2024/03/02 11:32:02;;;;;;;0.65;0.55;;;17.80;57.30;;;;;;5092062;28;20216;-62
2024/03/02 11:34:34;;;;;;;0.35;0.35;;;17.80;57.30;;;;;;5092680;28;20185;-63
2024/03/02 11:37:03;;;;;;;0.32;0.32;;;17.80;57.30;;;;;;5092781;28;20170;-62
2024/03/02 11:39:31;;;;;;;0.35;0.35;;;17.90;57.40;;;;;;5091673;28;20617;-62
2024/03/02 11:41:57;;;;;;;0.60;0.40;;;17.90;57.40;;;;;;5091464;28;20174;-63
2024/03/02 11:44:29;;;;;;;0.28;0.28;;;17.90;57.40;;;;;;5092539;28;20196;-62
2024/03/02 11:47:01;;;;;;;0.25;0.25;;;17.90;57.40;;;;;;5090747;28;20223;-62
2024/03/02 11:49:48;;;;;;;0.63;0.30;;;17.90;57.40;;;;;;5092244;28;20182;-62
2024/03/02 11:52:15;;;;;;;0.35;0.35;;;18.00;57.40;;;;;;5092195;28;20610;-61
2024/03/02 11:54:51;;;;;;;0.35;0.35;;;17.90;58.00;;;;;;5091730;28;20277;-62
2024/03/02 11:57:19;;;;;;;0.40;0.40;;;18.00;57.40;;;;;;5092199;28;20221;-62
2024/03/02 11:59:44;;;;;;;0.50;0.40;;;18.00;57.40;;;;;;5091945;28;20178;-62
2024/03/02 12:02:18;;;;;;;0.85;0.35;;;18.00;57.30;;;;;;5092205;28;20222;-62
2024/03/02 12:04:44;;;;;;;0.20;0.20;;;18.00;57.20;;;;;;5092460;28;20182;-62
2024/03/02 12:07:10;;;;;;;0.85;0.32;;;18.00;57.20;;;;;;5091306;28;20193;-62
2024/03/02 12:09:36;;;;;;;0.43;0.40;;;18.00;57.80;;;;;;5091495;28;20174;-62
2024/03/02 12:12:08;;;;;;;0.70;0.30;;;18.00;57.20;;;;;;5091017;28;20247;-62
2024/03/02 12:14:35;;;;;;;0.40;0.40;;;18.00;57.20;;;;;;5091770;28;20174;-62
2024/03/02 12:17:00;;;;;;;0.60;0.40;;;17.90;57.10;;;;;;5092360;28;20182;-62
2024/03/02 12:19:26;;;;;;;0.35;0.35;;;18.00;57.20;;;;;;5091783;28;20299;-62
2024/03/02 12:22:01;;;;;;;0.30;0.30;;;18.00;57.30;;;;;;5091646;28;20203;-62
2024/03/02 12:24:27;;;;;;;0.40;0.38;;;18.00;57.20;;;;;;5092008;28;20184;-63
2024/03/02 12:26:53;;;;;;;1.40;0.50;;;18.00;57.30;;;;;;5092213;28;20256;-62
2024/03/02 12:29:19;;;;;;;0.40;0.40;;;18.00;57.20;;;;;;5090035;28;20261;-62
2024/03/02 12:31:47;;;;;;;0.50;0.32;;;18.00;57.30;;;;;;5092007;28;20271;-62
2024/03/02 12:34:13;;;;;;;0.38;0.30;;;18.00;57.30;;;;;;5091657;28;20178;-62
2024/03/02 12:36:41;;;;;;;0.40;0.40;;;18.00;57.40;;;;;;5090382;28;20178;-63
2024/03/02 12:39:10;;;;;;;0.45;0.45;;;17.90;57.40;;;;;;5092163;28;20181;-63
2024/03/02 12:41:38;;;;;;;1.83;0.40;;;18.00;57.40;;;;;;5091571;28;20169;-63
2024/03/02 12:44:06;;;;;;;0.30;0.22;;;18.00;57.40;;;;;;5092012;28;20170;-63
2024/03/02 12:46:32;;;;;;;0.43;0.43;;;18.00;57.40;;;;;;5091649;28;20178;-62
2024/03/02 12:49:07;;;;;;;0.88;0.32;;;18.00;57.30;;;;;;5091393;28;20953;-61